createdAt,value
2017-06-16T00:02:28.043Z,8.90
2017-06-16T00:04:55.502Z,6.50
2017-06-16T00:07:22.972Z,9.40
2017-06-16T00:09:50.447Z,7.47
2017-06-16T00:12:17.924Z,7.47
2017-06-16T00:14:45.379Z,7.33
2017-06-16T00:17:12.862Z,7.43
2017-06-16T00:19:40.330Z,8.67
2017-06-16T00:22:07.804Z,8.33
2017-06-16T00:24:35.281Z,8.23
2017-06-16T00:27:02.746Z,8.40
2017-06-16T00:29:30.211Z,8.20
2017-06-16T00:31:57.684Z,6.73
2017-06-16T00:34:25.152Z,7.70
2017-06-16T00:36:52.635Z,7.10
2017-06-16T00:39:20.099Z,7.33
2017-06-16T00:41:47.578Z,8.57
2017-06-16T00:44:15.042Z,7.30
2017-06-16T00:46:42.498Z,7.93
2017-06-16T00:49:09.971Z,6.83
2017-06-16T00:51:37.427Z,6.70
2017-06-16T00:54:04.900Z,6.83
2017-06-16T00:56:32.383Z,6.33
2017-06-16T00:58:59.927Z,6.43
2017-06-16T01:01:27.384Z,6.13
2017-06-16T01:03:54.850Z,5.27
2017-06-16T01:06:22.326Z,5.40
2017-06-16T01:08:49.794Z,6.60
2017-06-16T01:11:17.340Z,5.17
2017-06-16T01:13:44.798Z,5.00
2017-06-16T01:16:12.267Z,4.87
2017-06-16T01:18:39.742Z,5.10
2017-06-16T01:21:07.202Z,4.20
2017-06-16T01:23:34.673Z,4.60
2017-06-16T01:26:02.139Z,5.10
2017-06-16T01:28:29.618Z,5.33
2017-06-16T01:30:57.075Z,4.40
2017-06-16T01:33:24.547Z,3.63
2017-06-16T01:35:52.006Z,3.90
2017-06-16T01:38:19.466Z,3.70
2017-06-16T01:40:46.936Z,3.50
2017-06-16T01:43:14.392Z,3.53
2017-06-16T01:45:41.869Z,3.30
2017-06-16T01:48:09.331Z,3.00
2017-06-16T01:50:36.778Z,3.13
2017-06-16T01:53:05.022Z,3.30
2017-06-16T01:55:32.487Z,3.73
2017-06-16T01:57:59.964Z,3.63
2017-06-16T02:00:27.426Z,3.17
2017-06-16T02:02:55.087Z,3.43
2017-06-16T02:05:23.323Z,3.17
2017-06-16T02:07:50.783Z,3.60
2017-06-16T02:10:18.264Z,3.50
2017-06-16T02:12:45.719Z,3.10
2017-06-16T02:15:13.178Z,2.60
2017-06-16T02:17:41.415Z,2.70
2017-06-16T02:20:08.894Z,3.30
2017-06-16T02:22:36.350Z,2.50
2017-06-16T02:25:03.819Z,1.90
2017-06-16T02:27:31.277Z,2.30
2017-06-16T02:29:59.550Z,2.33
2017-06-16T02:32:27.011Z,3.23
2017-06-16T02:34:54.502Z,2.90
2017-06-16T02:37:21.978Z,2.70
2017-06-16T02:39:49.453Z,2.47
2017-06-16T02:42:16.942Z,3.10
2017-06-16T02:44:45.160Z,2.80
2017-06-16T02:47:12.618Z,2.50
2017-06-16T02:49:40.079Z,2.27
2017-06-16T02:52:07.588Z,2.93
2017-06-16T02:54:35.051Z,2.83
2017-06-16T02:57:02.526Z,3.00
2017-06-16T02:59:30.047Z,2.40
2017-06-16T03:01:57.498Z,3.20
2017-06-16T03:04:24.967Z,3.20
2017-06-16T03:06:52.427Z,2.40
2017-06-16T03:09:24.742Z,2.20
2017-06-16T03:11:52.213Z,2.83
2017-06-16T03:14:19.679Z,2.50
2017-06-16T03:16:47.135Z,2.83
2017-06-16T03:19:14.598Z,2.20
2017-06-16T03:21:47.810Z,2.63
2017-06-16T03:24:20.955Z,2.40
2017-06-16T03:26:48.420Z,2.87
2017-06-16T03:29:15.947Z,2.87
2017-06-16T03:31:43.406Z,2.37
2017-06-16T03:34:10.881Z,2.87
2017-06-16T03:36:38.342Z,2.57
2017-06-16T03:39:05.806Z,2.30
2017-06-16T03:41:33.262Z,2.20
2017-06-16T03:44:00.726Z,2.20
2017-06-16T03:46:28.195Z,2.47
2017-06-16T03:48:55.656Z,3.00
2017-06-16T03:51:23.147Z,4.63
2017-06-16T03:53:50.603Z,2.30
2017-06-16T03:56:18.063Z,2.17
2017-06-16T03:58:45.543Z,2.93
2017-06-16T04:01:13.015Z,2.70
2017-06-16T04:03:40.474Z,2.50
2017-06-16T04:06:07.957Z,3.10
2017-06-16T04:08:35.431Z,2.60
2017-06-16T04:11:02.886Z,2.13
2017-06-16T04:13:30.375Z,3.60
2017-06-16T04:15:57.839Z,3.20
2017-06-16T04:18:25.304Z,2.37
2017-06-16T04:20:52.779Z,2.57
2017-06-16T04:23:20.239Z,2.50
2017-06-16T04:25:47.695Z,2.90
2017-06-16T04:28:15.163Z,2.60
2017-06-16T04:30:42.620Z,2.17
2017-06-16T04:33:10.087Z,2.90
2017-06-16T04:35:38.318Z,2.27
2017-06-16T04:38:05.787Z,3.10
2017-06-16T04:40:33.246Z,3.40
2017-06-16T04:43:00.710Z,3.53
2017-06-16T04:45:28.182Z,2.27
2017-06-16T04:47:55.655Z,2.93
2017-06-16T04:50:23.122Z,3.07
2017-06-16T04:52:50.583Z,2.80
2017-06-16T04:55:18.058Z,2.43
2017-06-16T04:57:45.522Z,2.47
2017-06-16T05:00:12.995Z,3.40
2017-06-16T05:02:40.454Z,3.40
2017-06-16T05:05:07.932Z,2.27
2017-06-16T05:07:35.392Z,2.70
2017-06-16T05:10:02.862Z,2.33
2017-06-16T05:12:30.327Z,2.80
2017-06-16T05:14:57.786Z,2.77
2017-06-16T05:17:25.255Z,3.60
2017-06-16T05:19:52.734Z,3.30
2017-06-16T05:22:20.283Z,2.87
2017-06-16T05:24:47.731Z,2.80
2017-06-16T05:27:15.191Z,1.93
2017-06-16T05:29:42.659Z,2.73
2017-06-16T05:32:10.118Z,3.80
2017-06-16T05:34:37.586Z,3.43
2017-06-16T05:37:05.051Z,3.30
2017-06-16T05:39:32.506Z,3.43
2017-06-16T05:41:59.994Z,3.27
2017-06-16T05:44:27.450Z,3.50
2017-06-16T05:46:54.915Z,2.97
2017-06-16T05:49:23.747Z,3.53
2017-06-16T05:51:51.698Z,2.90
2017-06-16T05:54:19.211Z,3.37
2017-06-16T05:56:46.726Z,3.03
2017-06-16T05:59:14.194Z,2.50
2017-06-16T06:01:41.664Z,3.00
2017-06-16T06:04:09.123Z,2.40
2017-06-16T06:06:36.579Z,3.30
2017-06-16T06:09:04.055Z,2.70
2017-06-16T06:11:31.515Z,2.67
2017-06-16T06:13:58.975Z,2.77
2017-06-16T06:16:26.426Z,2.27
2017-06-16T06:18:53.882Z,2.87
2017-06-16T06:21:21.339Z,2.50
2017-06-16T06:23:48.810Z,3.40
2017-06-16T06:26:17.047Z,3.30
2017-06-16T06:28:44.519Z,3.33
2017-06-16T06:31:11.986Z,3.63
2017-06-16T06:33:40.219Z,2.87
2017-06-16T06:36:07.682Z,4.93
2017-06-16T06:38:35.142Z,4.03
2017-06-16T06:41:02.602Z,4.70
2017-06-16T06:43:30.094Z,5.27
2017-06-16T06:45:57.558Z,4.57
2017-06-16T06:48:25.044Z,3.70
2017-06-16T06:50:52.500Z,4.70
2017-06-16T06:53:19.979Z,4.90
2017-06-16T06:55:47.458Z,5.57
2017-06-16T06:58:14.922Z,4.00
2017-06-16T07:00:42.387Z,4.83
2017-06-16T07:03:09.862Z,4.70
2017-06-16T07:05:37.314Z,4.70
2017-06-16T07:08:04.816Z,4.17
2017-06-16T07:10:32.286Z,4.17
2017-06-16T07:12:59.755Z,4.73
2017-06-16T07:15:27.222Z,4.57
2017-06-16T07:17:54.680Z,4.50
2017-06-16T07:20:22.906Z,4.30
2017-06-16T07:22:50.377Z,3.37
2017-06-16T07:25:17.860Z,4.43
2017-06-16T07:27:45.349Z,3.97
2017-06-16T07:30:13.580Z,2.93
2017-06-16T07:32:41.033Z,3.40
2017-06-16T07:35:08.546Z,3.90
2017-06-16T07:37:36.023Z,3.93
2017-06-16T07:40:03.479Z,3.67
2017-06-16T07:42:31.035Z,3.20
2017-06-16T07:44:58.498Z,4.50
2017-06-16T07:47:25.950Z,3.60
2017-06-16T07:49:53.402Z,3.43
2017-06-16T07:52:20.874Z,3.20
2017-06-16T07:54:48.344Z,3.70
2017-06-16T07:57:15.799Z,4.17
2017-06-16T07:59:43.269Z,3.07
2017-06-16T08:02:10.726Z,3.97
2017-06-16T08:04:38.202Z,3.40
2017-06-16T08:07:05.655Z,2.47
2017-06-16T08:09:33.122Z,3.67
2017-06-16T08:12:00.578Z,3.40
2017-06-16T08:14:28.044Z,3.60
2017-06-16T08:16:55.521Z,3.50
2017-06-16T08:19:22.979Z,3.03
2017-06-16T08:21:50.434Z,2.67
2017-06-16T08:24:17.910Z,3.80
2017-06-16T08:26:45.375Z,2.70
2017-06-16T08:29:12.908Z,2.73
2017-06-16T08:31:40.363Z,3.07
2017-06-16T08:34:07.823Z,3.33
2017-06-16T08:36:35.412Z,2.63
2017-06-16T08:39:02.859Z,3.10
2017-06-16T08:41:30.336Z,2.33
2017-06-16T08:43:57.814Z,3.57
2017-06-16T08:46:26.042Z,3.40
2017-06-16T08:48:53.523Z,3.00
2017-06-16T08:51:21.039Z,3.00
2017-06-16T08:53:48.493Z,3.37
2017-06-16T08:56:15.958Z,2.90
2017-06-16T08:58:43.426Z,2.70
2017-06-16T09:01:10.966Z,3.00
2017-06-16T09:03:38.407Z,3.17
2017-06-16T09:06:05.886Z,2.30
2017-06-16T09:08:33.350Z,3.80
2017-06-16T09:11:00.811Z,3.03
2017-06-16T09:13:28.282Z,3.00
2017-06-16T09:15:55.806Z,3.37
2017-06-16T09:18:23.247Z,2.93
2017-06-16T09:20:50.720Z,2.73
2017-06-16T09:23:18.235Z,3.07
2017-06-16T09:25:45.690Z,2.63
2017-06-16T09:28:13.911Z,3.03
2017-06-16T09:30:41.379Z,2.20
2017-06-16T09:33:08.834Z,3.20
2017-06-16T09:35:36.294Z,2.27
2017-06-16T09:38:03.759Z,2.50
2017-06-16T09:40:31.218Z,2.60
2017-06-16T09:42:58.746Z,3.30
2017-06-16T09:45:26.187Z,3.03
2017-06-16T09:47:53.651Z,3.60
2017-06-16T09:50:21.119Z,2.63
2017-06-16T09:52:48.568Z,3.20
2017-06-16T09:55:16.057Z,3.13
2017-06-16T09:57:43.549Z,2.73
2017-06-16T10:00:10.999Z,3.00
2017-06-16T10:02:39.226Z,2.27
2017-06-16T10:05:06.674Z,2.53
2017-06-16T10:07:34.158Z,2.77
2017-06-16T10:10:01.611Z,2.47
2017-06-16T10:12:29.074Z,3.47
2017-06-16T10:14:56.563Z,2.53
2017-06-16T10:17:24.793Z,2.10
2017-06-16T10:19:52.262Z,2.57
2017-06-16T10:22:19.743Z,2.70
2017-06-16T10:24:47.199Z,2.20
2017-06-16T10:27:15.418Z,2.60
2017-06-16T10:29:42.883Z,2.27
2017-06-16T10:32:10.458Z,2.60
2017-06-16T10:34:37.967Z,3.93
2017-06-16T10:37:05.426Z,2.83
2017-06-16T10:39:32.879Z,2.03
2017-06-16T10:42:00.347Z,2.77
2017-06-16T10:44:27.811Z,2.47
2017-06-16T10:46:55.262Z,2.37
2017-06-16T10:49:22.718Z,2.33
2017-06-16T10:51:50.233Z,2.20
2017-06-16T10:54:17.679Z,2.90
2017-06-16T10:56:45.146Z,2.97
2017-06-16T10:59:12.607Z,2.80
2017-06-16T11:01:40.063Z,3.20
2017-06-16T11:04:07.562Z,2.87
2017-06-16T11:06:35.023Z,3.00
2017-06-16T11:09:02.605Z,2.50
2017-06-16T11:11:30.101Z,2.30
2017-06-16T11:13:57.579Z,2.20
2017-06-16T11:16:25.028Z,2.10
2017-06-16T11:18:53.258Z,2.20
2017-06-16T11:21:20.710Z,1.83
2017-06-16T11:23:48.172Z,2.20
2017-06-16T11:26:15.627Z,2.40
2017-06-16T11:28:43.127Z,2.23
2017-06-16T11:31:10.579Z,2.70
2017-06-16T11:33:38.039Z,2.30
2017-06-16T11:36:05.559Z,2.73
2017-06-16T11:38:33.006Z,2.80
2017-06-16T11:41:00.465Z,2.50
2017-06-16T11:43:27.934Z,2.67
2017-06-16T11:45:55.385Z,2.80
2017-06-16T11:48:22.842Z,2.17
2017-06-16T11:50:50.299Z,2.77
2017-06-16T11:53:17.778Z,3.27
2017-06-16T11:55:45.994Z,2.30
2017-06-16T11:58:13.453Z,2.83
2017-06-16T12:00:40.918Z,2.30
2017-06-16T12:03:08.370Z,2.27
2017-06-16T12:05:35.826Z,2.40
2017-06-16T12:08:03.303Z,2.60
2017-06-16T12:09:05.521Z,0.0
2017-06-16T12:10:07.180Z,0.0
2017-06-16T12:10:30.759Z,2.60
2017-06-16T12:11:58.984Z,0.0
2017-06-16T12:12:58.234Z,3.03
2017-06-16T12:13:00.687Z,0.0
2017-06-16T12:14:51.635Z,0.0
2017-06-16T12:15:25.712Z,2.30
2017-06-16T12:15:53.296Z,0.0
2017-06-16T12:17:44.065Z,0.0
2017-06-16T12:17:53.214Z,2.60
2017-06-16T12:18:45.724Z,0.0
2017-06-16T12:20:20.678Z,2.40
2017-06-16T12:20:36.746Z,0.0
2017-06-16T12:21:38.406Z,0.0
2017-06-16T12:22:48.150Z,2.40
2017-06-16T12:23:29.272Z,0.0
2017-06-16T12:24:30.935Z,0.0
2017-06-16T12:25:15.598Z,2.53
2017-06-16T12:26:22.708Z,0.0
2017-06-16T12:27:24.367Z,0.0
2017-06-16T12:27:43.068Z,2.50
2017-06-16T12:29:15.159Z,0.0
2017-06-16T12:30:10.523Z,2.63
2017-06-16T12:30:16.816Z,0.0
2017-06-16T12:32:08.603Z,0.0
2017-06-16T12:32:37.982Z,2.00
2017-06-16T12:33:10.260Z,0.0
2017-06-16T12:35:02.029Z,0.0
2017-06-16T12:35:05.442Z,2.03
2017-06-16T12:36:03.691Z,0.0
2017-06-16T12:37:32.903Z,2.30
2017-06-16T12:37:55.479Z,0.0
2017-06-16T12:38:57.137Z,0.0
2017-06-16T12:40:01.018Z,3.77
2017-06-16T12:40:48.910Z,0.0
2017-06-16T12:41:50.609Z,0.0
2017-06-16T12:42:28.478Z,2.00
2017-06-16T12:43:42.444Z,0.0
2017-06-16T12:44:44.113Z,0.0
2017-06-16T12:44:55.950Z,2.03
2017-06-16T12:46:35.884Z,0.0
2017-06-16T12:47:23.410Z,3.00
2017-06-16T12:47:37.564Z,0.0
2017-06-16T12:49:29.354Z,0.0
2017-06-16T12:49:50.884Z,2.10
2017-06-16T12:50:31.015Z,0.0
2017-06-16T12:52:18.343Z,2.37
2017-06-16T12:52:22.787Z,0.0
2017-06-16T12:53:24.444Z,0.0
2017-06-16T12:54:45.798Z,2.83
2017-06-16T12:55:16.231Z,0.0
2017-06-16T12:57:13.266Z,2.27
2017-06-16T12:59:40.742Z,3.10
2017-06-16T13:02:08.202Z,2.23
2017-06-16T13:04:35.666Z,2.53
2017-06-16T13:07:03.901Z,2.07
2017-06-16T13:09:31.355Z,2.43
2017-06-16T13:11:58.815Z,1.80
2017-06-16T13:14:26.279Z,2.17
2017-06-16T13:16:55.350Z,2.20
2017-06-16T13:19:22.818Z,2.10
2017-06-16T13:21:50.275Z,2.00
2017-06-16T13:24:17.729Z,2.33
2017-06-16T13:26:45.218Z,2.07
2017-06-16T13:29:12.675Z,2.30
2017-06-16T13:31:40.127Z,2.27
2017-06-16T13:34:07.627Z,2.10
2017-06-16T13:36:35.094Z,2.53
2017-06-16T13:39:02.555Z,2.30
2017-06-16T13:41:30.019Z,2.50
2017-06-16T13:43:57.481Z,1.77
2017-06-16T13:46:24.938Z,2.80
2017-06-16T13:48:52.403Z,2.00
2017-06-16T13:51:20.833Z,1.90
2017-06-16T13:53:48.290Z,1.87
2017-06-16T13:56:15.770Z,2.17
2017-06-16T13:58:43.227Z,2.53
2017-06-16T14:01:10.681Z,2.50
2017-06-16T14:03:38.146Z,1.93
2017-06-16T14:06:05.598Z,2.30
2017-06-16T14:08:33.050Z,1.57
2017-06-16T14:11:00.546Z,2.27
2017-06-16T14:13:28.000Z,2.00
2017-06-16T14:15:55.464Z,2.40
2017-06-16T14:18:22.930Z,2.67
2017-06-16T14:20:50.378Z,2.33
2017-06-16T14:23:18.606Z,2.03
2017-06-16T14:25:46.075Z,2.43
2017-06-16T14:28:13.619Z,1.63
2017-06-16T14:30:41.079Z,2.50
2017-06-16T14:33:08.543Z,2.13
2017-06-16T14:35:36.164Z,2.43
2017-06-16T14:38:03.606Z,2.17
2017-06-16T14:40:31.128Z,1.73
2017-06-16T14:42:58.593Z,2.10
2017-06-16T14:45:26.119Z,2.27
2017-06-16T14:47:53.560Z,2.10
2017-06-16T14:50:21.036Z,1.93
2017-06-16T14:52:48.487Z,1.90
2017-06-16T14:55:15.942Z,1.70
2017-06-16T14:57:43.406Z,2.37
2017-06-16T15:00:11.647Z,1.90
2017-06-16T15:02:39.903Z,2.50
2017-06-16T15:05:07.350Z,2.50
2017-06-16T15:07:34.825Z,2.23
2017-06-16T15:10:02.290Z,2.40
2017-06-16T15:12:29.813Z,2.37
2017-06-16T15:14:57.258Z,2.07
2017-06-16T15:17:24.714Z,2.13
2017-06-16T15:19:52.171Z,2.40
2017-06-16T15:22:35.454Z,2.07
2017-06-16T15:25:02.926Z,1.37
2017-06-16T15:27:30.402Z,2.73
2017-06-16T15:29:57.870Z,2.40
2017-06-16T15:32:25.318Z,1.93
2017-06-16T15:34:52.774Z,1.80
2017-06-16T15:37:20.246Z,2.00
2017-06-16T15:39:47.699Z,1.73
2017-06-16T15:42:15.158Z,2.13
2017-06-16T15:44:42.625Z,1.80
2017-06-16T15:47:10.082Z,2.83
2017-06-16T15:49:37.555Z,1.97
2017-06-16T15:52:05.010Z,2.13
2017-06-16T15:54:32.458Z,2.10
2017-06-16T15:56:59.967Z,2.37
2017-06-16T15:59:27.467Z,2.40
2017-06-16T16:01:54.919Z,2.40
2017-06-16T16:04:22.391Z,1.60
2017-06-16T16:06:50.627Z,1.77
2017-06-16T16:09:18.171Z,1.67
2017-06-16T16:11:45.626Z,1.87
2017-06-16T16:14:13.086Z,1.87
2017-06-16T16:16:40.547Z,2.07
2017-06-16T16:19:08.010Z,1.57
2017-06-16T16:21:35.470Z,2.30
2017-06-16T16:24:02.946Z,2.20
2017-06-16T16:26:30.407Z,2.60
2017-06-16T16:28:57.866Z,1.97
2017-06-16T16:31:25.331Z,2.07
2017-06-16T16:33:52.774Z,2.00
2017-06-16T16:36:20.243Z,1.83
2017-06-16T16:38:47.722Z,2.47
2017-06-16T16:41:15.183Z,1.93
2017-06-16T16:43:42.638Z,2.10
2017-06-16T16:46:10.094Z,2.20
2017-06-16T16:48:37.552Z,2.20
2017-06-16T16:51:05.133Z,1.93
2017-06-16T16:53:32.576Z,1.80
2017-06-16T16:56:00.086Z,1.53
2017-06-16T16:58:27.574Z,1.73
2017-06-16T17:00:55.034Z,1.80
2017-06-16T17:03:22.522Z,1.50
2017-06-16T17:05:49.995Z,3.37
2017-06-16T17:08:17.466Z,3.90
2017-06-16T17:10:44.942Z,3.30
2017-06-16T17:13:12.442Z,3.20
2017-06-16T17:15:39.899Z,8.93
2017-06-16T17:18:07.374Z,10.40
2017-06-16T17:20:34.915Z,4.67
2017-06-16T17:23:02.358Z,6.27
2017-06-16T17:25:29.838Z,5.27
2017-06-16T17:27:57.294Z,4.80
2017-06-16T17:30:24.757Z,4.93
2017-06-16T17:32:52.227Z,4.53
2017-06-16T17:35:19.718Z,3.60
2017-06-16T17:37:47.185Z,4.03
2017-06-16T17:40:15.431Z,3.40
2017-06-16T17:42:42.901Z,2.80
2017-06-16T17:45:10.363Z,3.87
2017-06-16T17:47:37.819Z,2.40
2017-06-16T17:50:05.283Z,2.57
2017-06-16T17:52:32.746Z,2.53
2017-06-16T17:55:00.211Z,2.17
2017-06-16T17:57:27.784Z,1.93
2017-06-16T17:59:55.254Z,2.67
2017-06-16T18:02:22.714Z,2.47
2017-06-16T18:04:50.175Z,1.47
2017-06-16T18:07:17.665Z,1.87
2017-06-16T18:09:45.902Z,2.00
2017-06-16T18:12:13.394Z,1.53
2017-06-16T18:14:41.628Z,1.97
2017-06-16T18:17:09.175Z,2.50
2017-06-16T18:19:36.637Z,1.83
2017-06-16T18:22:04.099Z,2.20
2017-06-16T18:24:31.603Z,2.57
2017-06-16T18:26:59.825Z,1.60
2017-06-16T18:29:27.294Z,1.83
2017-06-16T18:31:54.816Z,1.63
2017-06-16T18:34:22.311Z,2.60
2017-06-16T18:36:49.775Z,1.73
2017-06-16T18:39:17.289Z,2.20
2017-06-16T18:41:44.766Z,1.93
2017-06-16T18:44:12.255Z,1.90
2017-06-16T18:46:39.723Z,2.27
2017-06-16T18:49:07.400Z,1.77
2017-06-16T18:51:34.943Z,1.50
2017-06-16T18:54:03.454Z,1.83
2017-06-16T18:56:31.704Z,2.17
2017-06-16T18:58:59.401Z,1.87
2017-06-16T19:01:26.891Z,1.70
2017-06-16T19:03:54.362Z,1.70
2017-06-16T19:06:22.070Z,1.40
2017-06-16T19:08:49.753Z,1.50
2017-06-16T19:11:17.246Z,1.40
2017-06-16T19:13:44.725Z,2.30
2017-06-16T19:16:12.434Z,2.30
2017-06-16T19:18:39.931Z,1.57
2017-06-16T19:21:07.403Z,2.33
2017-06-16T19:23:35.663Z,1.93
2017-06-16T19:26:03.135Z,1.83
2017-06-16T19:28:30.597Z,1.50
2017-06-16T19:30:59.140Z,1.47
2017-06-16T19:33:28.729Z,1.80
2017-06-16T19:35:57.555Z,1.97
2017-06-16T19:38:25.028Z,1.70
2017-06-16T19:40:53.303Z,2.30
2017-06-16T19:43:21.743Z,2.40
2017-06-16T19:45:50.174Z,1.60
2017-06-16T19:48:17.638Z,1.80
2017-06-16T19:50:45.115Z,1.60
2017-06-16T19:53:12.598Z,1.83
2017-06-16T19:55:40.514Z,1.57
2017-06-16T19:58:08.268Z,2.00
2017-06-16T20:00:35.855Z,1.50
2017-06-16T20:03:03.351Z,1.80
2017-06-16T20:05:30.814Z,1.93
2017-06-16T20:07:58.278Z,2.00
2017-06-16T20:10:25.742Z,1.50
2017-06-16T20:12:53.980Z,2.37
2017-06-16T20:15:21.659Z,2.43
2017-06-16T20:17:49.170Z,1.60
2017-06-16T20:20:16.683Z,2.23
2017-06-16T20:22:44.421Z,2.40
2017-06-16T20:25:12.678Z,2.30
2017-06-16T20:27:40.377Z,2.27
2017-06-16T20:30:07.892Z,2.50
2017-06-16T20:32:35.422Z,2.33
2017-06-16T20:35:03.650Z,2.40
2017-06-16T20:37:31.296Z,2.20
2017-06-16T20:39:58.951Z,2.03
2017-06-16T20:42:26.557Z,2.10
2017-06-16T20:44:54.045Z,2.60
2017-06-16T20:47:21.633Z,2.33
2017-06-16T20:49:49.168Z,2.10
2017-06-16T20:52:16.631Z,2.33
2017-06-16T20:54:44.102Z,2.27
2017-06-16T20:57:11.562Z,2.37
2017-06-16T20:59:39.027Z,2.37
2017-06-16T21:02:06.523Z,2.40
2017-06-16T21:04:34.892Z,2.10
2017-06-16T21:07:02.582Z,3.20
2017-06-16T21:09:30.096Z,2.00
2017-06-16T21:11:57.579Z,1.80
2017-06-16T21:14:25.814Z,1.97
2017-06-16T21:16:53.290Z,2.60
2017-06-16T21:19:21.754Z,2.10
2017-06-16T21:21:54.979Z,2.60
2017-06-16T21:24:22.447Z,2.10
2017-06-16T21:26:50.695Z,2.57
2017-06-16T21:29:18.159Z,2.10
2017-06-16T21:31:45.626Z,2.40
2017-06-16T21:34:13.090Z,1.97
2017-06-16T21:36:41.318Z,1.90
2017-06-16T21:39:08.803Z,2.40
2017-06-16T21:41:36.274Z,2.40
2017-06-16T21:44:03.818Z,2.70
2017-06-16T21:46:31.283Z,2.20
2017-06-16T21:48:58.830Z,2.70
2017-06-16T21:51:26.330Z,2.80
2017-06-16T21:53:53.795Z,3.37
2017-06-16T21:56:21.255Z,2.40
2017-06-16T21:58:48.762Z,2.87
2017-06-16T22:01:16.327Z,2.40
2017-06-16T22:03:43.786Z,2.90
2017-06-16T22:06:11.335Z,2.00
2017-06-16T22:08:38.792Z,3.03
2017-06-16T22:11:06.260Z,2.50
2017-06-16T22:13:33.802Z,2.73
2017-06-16T22:16:01.268Z,2.73
2017-06-16T22:18:28.757Z,2.60
2017-06-16T22:20:56.229Z,2.67
2017-06-16T22:23:23.698Z,2.73
2017-06-16T22:25:51.152Z,2.77
2017-06-16T22:28:18.606Z,3.73
2017-06-16T22:30:46.070Z,2.63
2017-06-16T22:33:13.531Z,2.93
2017-06-16T22:35:40.998Z,2.10
2017-06-16T22:38:08.462Z,2.93
2017-06-16T22:40:35.935Z,3.37
2017-06-16T22:43:03.411Z,2.23
2017-06-16T22:45:30.875Z,2.27
2017-06-16T22:47:58.398Z,2.53
2017-06-16T22:50:25.854Z,2.43
2017-06-16T22:52:53.331Z,3.00
2017-06-16T22:55:21.568Z,2.90
2017-06-16T22:57:49.214Z,2.17
2017-06-16T23:00:16.691Z,2.43
2017-06-16T23:02:44.168Z,3.00
2017-06-16T23:05:11.636Z,2.37
2017-06-16T23:07:39.861Z,2.63
2017-06-16T23:10:07.342Z,3.07
2017-06-16T23:12:34.790Z,2.27
2017-06-16T23:15:02.269Z,3.63
2017-06-16T23:17:29.719Z,2.90
2017-06-16T23:19:57.182Z,3.10
2017-06-16T23:22:24.635Z,2.90
2017-06-16T23:24:52.087Z,3.50
2017-06-16T23:27:19.558Z,3.23
2017-06-16T23:29:47.802Z,2.33
2017-06-16T23:32:15.259Z,3.30
2017-06-16T23:34:42.723Z,2.30
2017-06-16T23:37:10.204Z,2.93
2017-06-16T23:39:37.657Z,2.67
2017-06-16T23:42:05.120Z,3.03
2017-06-16T23:44:33.361Z,2.87
2017-06-16T23:47:00.811Z,2.70
2017-06-16T23:49:28.275Z,2.57
2017-06-16T23:51:55.731Z,2.00
2017-06-16T23:54:23.186Z,2.63
2017-06-16T23:56:50.734Z,2.40
2017-06-16T23:59:18.221Z,2.43
